createdAt,value
2022-08-25T00:00:25.425Z,100236.06
2022-08-25T00:02:59.087Z,100238.91
2022-08-25T00:05:33.906Z,100239.38
2022-08-25T00:08:06.926Z,100242.22
2022-08-25T00:10:42.945Z,100244.25
2022-08-25T00:13:14.782Z,100242.63
2022-08-25T00:15:45.727Z,100241.84
2022-08-25T00:18:19.531Z,100236.13
2022-08-25T00:20:53.131Z,100229.63
2022-08-25T00:23:24.079Z,100239.06
2022-08-25T00:25:56.437Z,100228.06
2022-08-25T00:28:27.172Z,100228.91
2022-08-25T00:30:57.831Z,100241.09
2022-08-25T00:33:28.288Z,100239.06
2022-08-25T00:36:02.103Z,100234.16
2022-08-25T00:38:33.246Z,100234.59
2022-08-25T00:41:11.338Z,100241.53
2022-08-25T00:43:52.512Z,100237.06
2022-08-25T00:46:28.101Z,100244.00
2022-08-25T00:49:04.783Z,100241.16
2022-08-25T00:51:45.640Z,100233.84
2022-08-25T00:54:21.746Z,100242.81
2022-08-25T00:56:55.666Z,100247.69
2022-08-25T00:59:28.650Z,100249.75
2022-08-25T01:02:00.003Z,100246.13
2022-08-25T01:04:31.624Z,100252.59
2022-08-25T01:07:05.785Z,100251.38
2022-08-25T01:09:42.377Z,100246.47
2022-08-25T01:12:13.144Z,100239.53
2022-08-25T01:14:45.156Z,100248.91
2022-08-25T01:17:17.147Z,100241.16
2022-08-25T01:19:47.944Z,100253.38
2022-08-25T01:22:22.002Z,100247.66
2022-08-25T01:25:02.319Z,100244.81
2022-08-25T01:27:33.265Z,100239.53
2022-08-25T01:30:03.871Z,100237.13
2022-08-25T01:32:37.526Z,100247.28
2022-08-25T01:35:09.561Z,100240.78
2022-08-25T01:37:41.804Z,100239.97
2022-08-25T01:40:13.780Z,100237.91
2022-08-25T01:43:01.150Z,100239.97
2022-08-25T01:45:32.229Z,100244.06
2022-08-25T01:48:02.659Z,100236.31
2022-08-25T01:50:33.552Z,100239.16
2022-08-25T01:53:10.548Z,100239.97
2022-08-25T01:55:54.619Z,100239.97
2022-08-25T01:58:28.087Z,100239.16
2022-08-25T02:01:02.749Z,100234.28
2022-08-25T02:03:33.774Z,100225.72
2022-08-25T02:06:04.609Z,100226.53
2022-08-25T02:08:38.787Z,100234.28
2022-08-25T02:11:13.045Z,100238.78
2022-08-25T02:13:44.742Z,100237.94
2022-08-25T02:16:23.221Z,100237.16
2022-08-25T02:18:54.439Z,100232.31
2022-08-25T02:21:26.297Z,100232.78
2022-08-25T02:24:00.648Z,100224.22
2022-08-25T02:26:31.868Z,100228.31
2022-08-25T02:29:03.048Z,100234.78
2022-08-25T02:31:33.813Z,100243.34
2022-08-25T02:34:05.535Z,100245.41
2022-08-25T02:36:36.628Z,100245.41
2022-08-25T02:39:12.013Z,100247.41
2022-08-25T02:41:42.951Z,100249.09
2022-08-25T02:44:14.484Z,100251.16
2022-08-25T02:46:45.349Z,100247.47
2022-08-25T02:49:16.405Z,100251.16
2022-08-25T02:51:47.399Z,100256.03
2022-08-25T02:54:20.573Z,100256.03
2022-08-25T02:56:52.582Z,100255.25
2022-08-25T02:59:23.745Z,100250.34
2022-08-25T03:01:54.719Z,100251.16
2022-08-25T03:04:25.864Z,100253.19
2022-08-25T03:07:01.243Z,100258.88
2022-08-25T03:09:34.301Z,100259.31
2022-08-25T03:12:10.788Z,100257.69
2022-08-25T03:14:42.630Z,100252.44
2022-08-25T03:17:13.428Z,100251.63
2022-08-25T03:19:44.284Z,100245.13
2022-08-25T03:22:15.226Z,100248.00
2022-08-25T03:24:48.075Z,100239.44
2022-08-25T03:27:17.057Z,100257.31
2022-08-25T03:29:48.475Z,100252.88
2022-08-25T03:32:18.681Z,100258.56
2022-08-25T03:34:48.719Z,100247.59
2022-08-25T03:37:20.391Z,100252.47
2022-08-25T03:39:53.172Z,100246.78
2022-08-25T03:42:23.948Z,100247.22
2022-08-25T03:44:55.181Z,100250.91
2022-08-25T03:47:29.764Z,100252.94
2022-08-25T03:50:00.807Z,100257.00
2022-08-25T03:52:31.828Z,100255.00
2022-08-25T03:55:06.085Z,100259.13
2022-08-25T03:57:37.252Z,100257.91
2022-08-25T04:00:09.910Z,100257.13
2022-08-25T04:02:40.986Z,100260.78
2022-08-25T04:05:12.844Z,100263.63
2022-08-25T04:07:47.229Z,100274.59
2022-08-25T04:10:20.180Z,100271.31
2022-08-25T04:12:52.211Z,100270.88
2022-08-25T04:15:22.804Z,100268.41
2022-08-25T04:17:53.932Z,100258.63
2022-08-25T04:20:25.056Z,100265.13
2022-08-25T04:22:55.810Z,100258.19
2022-08-25T04:25:28.060Z,100267.53
2022-08-25T04:27:58.623Z,100272.00
2022-08-25T04:30:29.303Z,100277.25
2022-08-25T04:33:00.114Z,100266.25
2022-08-25T04:35:30.611Z,100273.94
2022-08-25T04:38:03.323Z,100262.91
2022-08-25T04:40:35.651Z,100269.78
2022-08-25T04:43:07.431Z,100274.25
2022-08-25T04:45:41.084Z,100274.59
2022-08-25T04:48:11.935Z,100263.22
2022-08-25T04:50:43.022Z,100270.88
2022-08-25T04:53:14.065Z,100273.66
2022-08-25T04:55:47.741Z,100270.38
2022-08-25T04:58:19.560Z,100267.09
2022-08-25T05:00:50.738Z,100263.41
2022-08-25T05:03:21.801Z,100266.63
2022-08-25T05:05:55.616Z,100272.25
2022-08-25T05:08:26.154Z,100274.22
2022-08-25T05:10:58.545Z,100269.72
2022-08-25T05:13:30.101Z,100279.81
2022-08-25T05:16:03.139Z,100286.22
2022-08-25T05:18:36.371Z,100271.13
2022-08-25T05:21:11.965Z,100271.88
2022-08-25T05:23:44.165Z,100278.28
2022-08-25T05:26:20.548Z,100284.31
2022-08-25T05:28:54.545Z,100285.09
2022-08-25T05:31:27.320Z,100278.06
2022-08-25T05:33:58.202Z,100271.84
2022-08-25T05:36:31.158Z,100271.78
2022-08-25T05:39:01.794Z,100277.00
2022-08-25T05:41:34.395Z,100271.59
2022-08-25T05:44:05.617Z,100274.38
2022-08-25T05:46:36.719Z,100273.84
2022-08-25T05:49:07.592Z,100275.38
2022-08-25T05:51:38.366Z,100273.28
2022-08-25T05:54:08.771Z,100275.63
2022-08-25T05:56:41.032Z,100273.53
2022-08-25T05:59:12.955Z,100275.88
2022-08-25T06:02:00.222Z,100278.66
2022-08-25T06:04:31.275Z,100274.47
2022-08-25T06:07:01.897Z,100270.28
2022-08-25T06:09:33.126Z,100273.44
2022-08-25T06:12:06.498Z,100268.44
2022-08-25T06:14:38.610Z,100265.53
2022-08-25T06:17:09.552Z,100269.91
2022-08-25T06:19:41.330Z,100264.50
2022-08-25T06:22:11.835Z,100266.00
2022-08-25T06:24:45.150Z,100270.44
2022-08-25T06:27:17.473Z,100265.00
2022-08-25T06:29:48.868Z,100259.19
2022-08-25T06:32:23.571Z,100259.47
2022-08-25T06:34:53.720Z,100268.31
2022-08-25T06:37:25.315Z,100268.59
2022-08-25T06:39:56.854Z,100265.66
2022-08-25T06:42:31.271Z,100262.25
2022-08-25T06:45:02.771Z,100263.75
2022-08-25T06:47:33.639Z,100272.59
2022-08-25T06:50:05.584Z,100269.25
2022-08-25T06:52:37.229Z,100274.88
2022-08-25T06:55:08.989Z,100277.66
2022-08-25T06:57:41.354Z,100273.81
2022-08-25T07:00:14.377Z,100274.09
2022-08-25T07:02:44.897Z,100272.75
2022-08-25T07:05:26.970Z,100264.06
2022-08-25T07:08:05.188Z,100261.91
2022-08-25T07:10:35.504Z,100269.94
2022-08-25T07:13:09.362Z,100269.06
2022-08-25T07:15:42.209Z,100267.75
2022-08-25T07:18:16.808Z,100257.44
2022-08-25T07:20:47.687Z,100261.81
2022-08-25T07:23:19.158Z,100251.09
2022-08-25T07:25:49.995Z,100253.41
2022-08-25T07:28:25.345Z,100252.88
2022-08-25T07:31:01.453Z,100249.91
2022-08-25T07:33:32.602Z,100249.31
2022-08-25T07:36:01.697Z,100243.06
2022-08-25T07:38:32.167Z,100248.69
2022-08-25T07:41:08.605Z,100243.22
2022-08-25T07:43:42.321Z,100250.91
2022-08-25T07:46:13.731Z,100255.72
2022-08-25T07:48:44.983Z,100243.38
2022-08-25T07:51:24.630Z,100243.75
2022-08-25T07:53:55.754Z,100240.78
2022-08-25T07:56:26.416Z,100238.59
2022-08-25T07:58:58.893Z,100239.75
2022-08-25T08:01:30.201Z,100236.78
2022-08-25T08:04:03.438Z,100239.06
2022-08-25T08:06:35.259Z,100239.78
2022-08-25T08:09:06.850Z,100239.31
2022-08-25T08:11:45.198Z,100239.19
2022-08-25T08:14:26.433Z,100235.91
2022-08-25T08:16:57.277Z,100239.13
2022-08-25T08:19:27.799Z,100240.69
2022-08-25T08:22:02.326Z,100236.13
2022-08-25T08:24:44.812Z,100240.13
2022-08-25T08:27:25.379Z,100229.50
2022-08-25T08:29:57.989Z,100235.16
2022-08-25T08:32:45.101Z,100235.94
2022-08-25T08:35:19.833Z,100230.56
2022-08-25T08:37:52.592Z,100230.44
2022-08-25T08:40:25.788Z,100226.66
2022-08-25T08:43:18.039Z,100222.09
2022-08-25T08:45:54.429Z,100235.59
2022-08-25T08:49:04.665Z,100222.56
2022-08-25T08:51:43.809Z,100222.88
2022-08-25T08:54:23.148Z,100217.50
2022-08-25T08:57:06.947Z,100224.38
2022-08-25T08:59:49.467Z,100223.47
2022-08-25T09:02:39.320Z,100225.41
2022-08-25T09:05:25.011Z,100230.19
2022-08-25T09:08:00.830Z,100226.44
2022-08-25T09:10:48.190Z,100220.22
2022-08-25T09:13:32.211Z,100222.31
2022-08-25T09:16:34.411Z,100225.97
2022-08-25T09:19:32.230Z,100219.44
2022-08-25T09:22:33.881Z,100220.56
2022-08-25T09:25:39.636Z,100215.66
2022-08-25T09:28:25.645Z,100216.94
2022-08-25T09:31:02.607Z,100213.25
2022-08-25T09:33:37.541Z,100202.59
2022-08-25T09:36:10.987Z,100214.41
2022-08-25T09:38:42.733Z,100219.66
2022-08-25T09:41:19.622Z,100206.13
2022-08-25T09:43:58.214Z,100209.81
2022-08-25T09:46:32.079Z,100204.88
2022-08-25T09:49:17.235Z,100202.34
2022-08-25T09:51:49.974Z,100199.00
2022-08-25T09:54:43.832Z,100200.22
2022-08-25T09:57:36.933Z,100195.72
2022-08-25T10:00:22.084Z,100196.16
2022-08-25T10:03:12.945Z,100198.56
2022-08-25T10:06:04.579Z,100189.53
2022-08-25T10:08:42.617Z,100185.75
2022-08-25T10:11:16.539Z,100194.22
2022-08-25T10:13:52.687Z,100191.25
2022-08-25T10:16:33.606Z,100185.03
2022-08-25T10:19:12.872Z,100187.91
2022-08-25T10:21:46.220Z,100183.00
2022-08-25T10:24:20.046Z,100178.50
2022-08-25T10:27:04.017Z,100182.63
2022-08-25T10:30:06.279Z,100183.13
2022-08-25T10:33:09.316Z,100177.03
2022-08-25T10:35:59.104Z,100177.50
2022-08-25T10:38:50.469Z,100181.28
2022-08-25T10:41:55.324Z,100180.94
2022-08-25T10:44:53.889Z,100177.69
2022-08-25T10:48:10.643Z,100174.97
2022-08-25T10:50:49.861Z,100174.97
2022-08-25T10:53:32.365Z,100163.06
2022-08-25T10:56:21.579Z,100167.88
2022-08-25T10:59:20.193Z,100164.56
2022-08-25T11:02:50.762Z,100165.44
2022-08-25T11:05:33.292Z,100166.84
2022-08-25T11:08:13.549Z,100155.38
2022-08-25T11:10:52.561Z,100166.00
2022-08-25T11:13:34.392Z,100159.03
2022-08-25T11:16:18.550Z,100152.84
2022-08-25T11:18:59.801Z,100153.63
2022-08-25T11:21:46.066Z,100147.13
2022-08-25T11:24:39.180Z,100141.50
2022-08-25T11:27:19.666Z,100134.63
2022-08-25T11:30:10.094Z,100132.91
2022-08-25T11:32:46.179Z,100131.63
2022-08-25T11:35:21.514Z,100134.06
2022-08-25T11:38:19.808Z,100125.44
2022-08-25T11:41:11.450Z,100119.84
2022-08-25T11:44:18.032Z,100114.56
2022-08-25T11:47:21.585Z,100118.25
2022-08-25T11:50:04.730Z,100114.13
2022-08-25T11:52:57.151Z,100114.56
2022-08-25T11:55:50.097Z,100107.69
2022-08-25T11:58:51.374Z,100112.63
2022-08-25T12:02:30.932Z,100097.63
2022-08-25T12:05:04.162Z,100103.34
2022-08-25T12:08:22.041Z,100100.84
2022-08-25T12:11:10.656Z,100100.50
2022-08-25T12:13:48.347Z,100097.63
2022-08-25T12:16:44.930Z,100097.63
2022-08-25T12:19:54.280Z,100105.53
2022-08-25T12:23:02.301Z,100101.31
2022-08-25T12:25:56.353Z,100102.25
2022-08-25T12:28:50.109Z,100095.34
2022-08-25T12:31:42.794Z,100097.44
2022-08-25T12:34:39.714Z,100091.72
2022-08-25T12:37:17.940Z,100099.47
2022-08-25T12:40:02.950Z,100095.81
2022-08-25T12:42:40.087Z,100097.09
2022-08-25T12:45:32.678Z,100096.31
2022-08-25T12:48:57.564Z,100094.00
2022-08-25T12:51:48.504Z,100090.00
2022-08-25T12:54:28.154Z,100090.00
2022-08-25T12:57:05.083Z,100083.81
2022-08-25T12:59:40.444Z,100085.88
2022-08-25T13:02:52.449Z,100077.38
2022-08-25T13:06:01.497Z,100076.69
2022-08-25T13:09:20.963Z,100082.19
2022-08-25T13:12:04.034Z,100083.44
2022-08-25T13:14:42.013Z,100072.00
2022-08-25T13:17:27.217Z,100072.47
2022-08-25T13:20:16.890Z,100074.50
2022-08-25T13:22:57.334Z,100082.31
2022-08-25T13:25:33.638Z,100082.78
2022-08-25T13:28:11.167Z,100082.09
2022-08-25T13:30:44.189Z,100082.88
2022-08-25T13:33:25.184Z,100084.47
2022-08-25T13:36:12.244Z,100078.44
2022-08-25T13:38:45.821Z,100084.25
2022-08-25T13:41:29.301Z,100073.75
2022-08-25T13:44:02.768Z,100068.91
2022-08-25T13:46:36.750Z,100085.31
2022-08-25T13:49:10.453Z,100075.91
2022-08-25T13:51:53.822Z,100077.28
2022-08-25T13:54:32.565Z,100066.72
2022-08-25T13:57:18.525Z,100077.84
2022-08-25T13:59:55.423Z,100075.00
2022-08-25T14:02:50.796Z,100067.66
2022-08-25T14:05:37.923Z,100068.47
2022-08-25T14:08:23.515Z,100075.44
2022-08-25T14:11:14.774Z,100083.22
2022-08-25T14:13:47.148Z,100083.66
2022-08-25T14:16:26.873Z,100078.78
2022-08-25T14:19:04.133Z,100078.84
2022-08-25T14:21:37.555Z,100085.47
2022-08-25T14:24:12.060Z,100085.59
2022-08-25T14:26:53.820Z,100090.63
2022-08-25T14:29:25.042Z,100083.75
2022-08-25T14:31:56.639Z,100090.72
2022-08-25T14:34:37.448Z,100098.06
2022-08-25T14:37:15.459Z,100091.09
2022-08-25T14:39:47.830Z,100092.81
2022-08-25T14:42:18.508Z,100097.34
2022-08-25T14:44:49.452Z,100083.97
2022-08-25T14:47:21.182Z,100095.84
2022-08-25T14:49:56.922Z,100093.94
2022-08-25T14:52:32.889Z,100100.09
2022-08-25T14:55:06.103Z,100096.53
2022-08-25T14:57:38.325Z,100097.81
2022-08-25T15:00:12.067Z,100092.53
2022-08-25T15:02:46.743Z,100101.13
2022-08-25T15:05:29.605Z,100100.78
2022-08-25T15:08:17.775Z,100095.94
2022-08-25T15:10:48.482Z,100098.44
2022-08-25T15:13:19.607Z,100101.78
2022-08-25T15:15:53.233Z,100095.69
2022-08-25T15:18:24.730Z,100092.06
2022-08-25T15:20:57.210Z,100092.50
2022-08-25T15:23:28.778Z,100091.31
2022-08-25T15:26:00.274Z,100097.94
2022-08-25T15:28:31.290Z,100098.03
2022-08-25T15:31:02.507Z,100107.50
2022-08-25T15:33:33.851Z,100097.78
2022-08-25T15:36:07.530Z,100100.28
2022-08-25T15:38:46.805Z,100098.72
2022-08-25T15:41:18.194Z,100109.34
2022-08-25T15:43:48.284Z,100106.13
2022-08-25T15:46:26.048Z,100111.94
2022-08-25T15:48:57.733Z,100104.25
2022-08-25T15:51:30.928Z,100103.94
2022-08-25T15:54:02.153Z,100110.06
2022-08-25T15:56:33.364Z,100106.91
2022-08-25T15:59:08.662Z,100112.25
2022-08-25T16:01:39.705Z,100116.78
2022-08-25T16:04:10.793Z,100114.41
2022-08-25T16:06:43.797Z,100115.66
2022-08-25T16:09:16.177Z,100119.41
2022-08-25T16:11:56.094Z,100113.78
2022-08-25T16:14:28.838Z,100112.59
2022-08-25T16:17:01.214Z,100107.78
2022-08-25T16:19:32.010Z,100122.53
2022-08-25T16:22:08.717Z,100118.88
2022-08-25T16:24:44.847Z,100128.69
2022-08-25T16:27:16.257Z,100125.47
2022-08-25T16:29:48.229Z,100122.25
2022-08-25T16:32:19.967Z,100126.38
2022-08-25T16:34:50.631Z,100128.44
2022-08-25T16:37:22.715Z,100133.31
2022-08-25T16:39:56.628Z,100131.38
2022-08-25T16:42:27.501Z,100136.75
2022-08-25T16:44:59.354Z,100140.47
2022-08-25T16:47:29.730Z,100144.59
2022-08-25T16:50:00.410Z,100154.06
2022-08-25T16:52:59.579Z,100156.09
2022-08-25T16:55:38.927Z,100148.88
2022-08-25T16:58:13.509Z,100160.75
2022-08-25T17:00:45.013Z,100151.84
2022-08-25T17:03:17.502Z,100151.84
2022-08-25T17:05:48.376Z,100155.16
2022-08-25T17:08:32.121Z,100151.47
2022-08-25T17:11:12.027Z,100155.16
2022-08-25T17:13:47.357Z,100160.03
2022-08-25T17:16:22.565Z,100155.94
2022-08-25T17:18:53.749Z,100160.50
2022-08-25T17:21:28.041Z,100163.34
2022-08-25T17:24:00.655Z,100158.06
2022-08-25T17:26:36.754Z,100164.69
2022-08-25T17:29:09.190Z,100175.75
2022-08-25T17:31:40.722Z,100165.19
2022-08-25T17:34:16.221Z,100175.00
2022-08-25T17:36:47.891Z,100170.59
2022-08-25T17:39:22.387Z,100171.44
2022-08-25T17:41:54.592Z,100173.91
2022-08-25T17:44:25.141Z,100169.81
2022-08-25T17:46:56.374Z,100172.31
2022-08-25T17:49:27.586Z,100178.47
2022-08-25T17:51:58.397Z,100171.94
2022-08-25T17:54:31.377Z,100178.91
2022-08-25T17:57:02.617Z,100184.28
2022-08-25T17:59:32.789Z,100179.44
2022-08-25T18:02:04.904Z,100185.59
2022-08-25T18:04:35.617Z,100186.41
2022-08-25T18:07:08.723Z,100184.31
2022-08-25T18:09:41.206Z,100190.41
2022-08-25T18:12:11.932Z,100190.78
2022-08-25T18:14:42.764Z,100190.78
2022-08-25T18:17:22.017Z,100197.28
2022-08-25T18:19:54.001Z,100195.69
2022-08-25T18:22:25.052Z,100192.84
2022-08-25T18:24:58.048Z,100201.41
2022-08-25T18:27:29.222Z,100201.81
2022-08-25T18:30:00.457Z,100211.63
2022-08-25T18:32:32.124Z,100203.88
2022-08-25T18:35:03.695Z,100207.91
2022-08-25T18:37:52.318Z,100210.38
2022-08-25T18:40:25.175Z,100209.59
2022-08-25T18:42:58.280Z,100217.78
2022-08-25T18:45:32.550Z,100220.66
2022-08-25T18:48:04.594Z,100215.41
2022-08-25T18:50:41.463Z,100215.41
2022-08-25T18:53:13.085Z,100219.84
2022-08-25T18:55:47.203Z,100221.00
2022-08-25T18:58:19.928Z,100222.25
2022-08-25T19:00:51.539Z,100214.94
2022-08-25T19:03:24.185Z,100217.00
2022-08-25T19:05:57.192Z,100215.03
2022-08-25T19:08:28.539Z,100209.31
2022-08-25T19:11:01.357Z,100215.03
2022-08-25T19:13:32.326Z,100214.19
2022-08-25T19:16:12.170Z,100223.59
2022-08-25T19:18:45.029Z,100219.56
2022-08-25T19:21:15.618Z,100226.91
2022-08-25T19:23:45.912Z,100221.97
2022-08-25T19:26:19.477Z,100222.75
2022-08-25T19:28:51.319Z,100220.38
2022-08-25T19:31:25.445Z,100219.91
2022-08-25T19:33:59.899Z,100211.81
2022-08-25T19:36:32.943Z,100223.69
2022-08-25T19:39:05.300Z,100227.78
2022-08-25T19:41:37.937Z,100236.75
2022-08-25T19:44:09.197Z,100238.81
2022-08-25T19:46:43.110Z,100232.75
2022-08-25T19:49:18.852Z,100234.81
2022-08-25T19:51:53.930Z,100238.91
2022-08-25T19:54:28.724Z,100234.81
2022-08-25T19:57:03.789Z,100236.41
2022-08-25T19:59:43.196Z,100235.97
2022-08-25T20:02:20.263Z,100235.97
2022-08-25T20:05:10.343Z,100235.97
2022-08-25T20:07:41.469Z,100236.41
2022-08-25T20:10:15.957Z,100230.72
2022-08-25T20:12:50.595Z,100229.47
2022-08-25T20:15:21.024Z,100230.72
2022-08-25T20:17:51.690Z,100228.66
2022-08-25T20:20:34.524Z,100227.03
2022-08-25T20:23:23.777Z,100225.78
2022-08-25T20:25:55.337Z,100222.56
2022-08-25T20:28:28.612Z,100217.69
2022-08-25T20:30:59.544Z,100215.25
2022-08-25T20:33:31.181Z,100212.75
2022-08-25T20:36:03.195Z,100207.06
2022-08-25T20:38:33.952Z,100202.59
2022-08-25T20:41:05.144Z,100203.84
2022-08-25T20:43:38.266Z,100198.13
2022-08-25T20:46:11.468Z,100192.88
2022-08-25T20:48:43.183Z,100200.28
2022-08-25T20:51:15.303Z,100188.03
2022-08-25T20:53:49.400Z,100184.84
2022-08-25T20:56:22.353Z,100184.84
2022-08-25T20:58:55.090Z,100173.84
2022-08-25T21:01:38.239Z,100174.69
2022-08-25T21:04:15.987Z,100175.56
2022-08-25T21:06:51.063Z,100172.69
2022-08-25T21:09:25.296Z,100164.13
2022-08-25T21:11:58.697Z,100163.78
2022-08-25T21:14:32.034Z,100157.69
2022-08-25T21:17:03.217Z,100150.03
2022-08-25T21:19:33.997Z,100154.13
2022-08-25T21:22:04.578Z,100152.13
2022-08-25T21:24:35.169Z,100148.13
2022-08-25T21:27:07.130Z,100152.22
2022-08-25T21:29:39.350Z,100144.91
2022-08-25T21:32:16.144Z,100143.75
2022-08-25T21:34:47.331Z,100140.88
2022-08-25T21:37:18.244Z,100138.03
2022-08-25T21:39:48.675Z,100139.66
2022-08-25T21:42:19.969Z,100142.50
2022-08-25T21:44:53.212Z,100149.44
2022-08-25T21:47:25.489Z,100155.56
2022-08-25T21:49:56.168Z,100153.19
2022-08-25T21:52:27.398Z,100141.75
2022-08-25T21:54:58.127Z,100155.56
2022-08-25T21:57:29.001Z,100157.56
2022-08-25T22:00:01.230Z,100155.53
2022-08-25T22:02:31.895Z,100162.47
2022-08-25T22:05:03.017Z,100168.19
2022-08-25T22:07:44.208Z,100169.41
2022-08-25T22:10:17.756Z,100162.88
2022-08-25T22:12:48.851Z,100167.34
2022-08-25T22:15:22.058Z,100170.56
2022-08-25T22:17:53.156Z,100168.53
2022-08-25T22:20:23.955Z,100172.19
2022-08-25T22:22:56.316Z,100168.53
2022-08-25T22:25:26.977Z,100173.78
2022-08-25T22:27:57.733Z,100174.16
2022-08-25T22:30:29.826Z,100182.28
2022-08-25T22:33:01.718Z,100181.06
2022-08-25T22:35:36.820Z,100188.78
2022-08-25T22:38:12.436Z,100188.44
2022-08-25T22:40:44.235Z,100185.22
2022-08-25T22:43:15.070Z,100187.25
2022-08-25T22:45:48.508Z,100185.22
2022-08-25T22:48:21.381Z,100198.66
2022-08-25T22:50:52.048Z,100189.31
2022-08-25T22:53:23.660Z,100196.63
2022-08-25T22:55:53.991Z,100186.44
2022-08-25T22:58:31.687Z,100193.41
2022-08-25T23:01:04.375Z,100192.59
2022-08-25T23:03:36.190Z,100197.84
2022-08-25T23:06:24.620Z,100188.06
2022-08-25T23:08:57.133Z,100196.63
2022-08-25T23:11:28.902Z,100201.88
2022-08-25T23:14:01.349Z,100199.84
2022-08-25T23:16:35.222Z,100199.03
2022-08-25T23:19:05.891Z,100210.44
2022-08-25T23:21:56.941Z,100211.66
2022-08-25T23:24:30.042Z,100210.06
2022-08-25T23:27:03.931Z,100210.88
2022-08-25T23:29:36.484Z,100210.88
2022-08-25T23:32:11.465Z,100208.81
2022-08-25T23:34:47.204Z,100207.22
2022-08-25T23:37:19.123Z,100204.34
2022-08-25T23:39:50.897Z,100208.47
2022-08-25T23:42:23.173Z,100208.53
2022-08-25T23:44:54.198Z,100206.59
2022-08-25T23:47:27.412Z,100218.78
2022-08-25T23:49:58.415Z,100206.59
2022-08-25T23:52:29.852Z,100205.34
2022-08-25T23:55:08.718Z,100204.50
2022-08-25T23:57:39.522Z,100209.44
